createdAt,value
2017-10-18T00:00:23.291Z,5.27
2017-10-18T00:02:49.602Z,5.00
2017-10-18T00:05:16.643Z,4.43
2017-10-18T00:07:43.666Z,4.50
2017-10-18T00:10:09.957Z,4.28
2017-10-18T00:12:36.264Z,5.33
2017-10-18T00:15:03.315Z,5.80
2017-10-18T00:17:29.626Z,4.40
2017-10-18T00:19:56.726Z,4.70
2017-10-18T00:22:23.012Z,5.13
2017-10-18T00:24:50.027Z,5.80
2017-10-18T00:27:16.330Z,5.93
2017-10-18T00:29:42.613Z,5.10
2017-10-18T00:32:09.679Z,6.60
2017-10-18T00:34:36.028Z,5.60
2017-10-18T00:37:02.346Z,5.47
2017-10-18T00:39:28.706Z,5.10
2017-10-18T00:41:55.047Z,5.35
2017-10-18T00:44:21.361Z,5.50
2017-10-18T00:46:47.683Z,6.57
2017-10-18T00:49:13.995Z,7.33
2017-10-18T00:51:40.307Z,5.87
2017-10-18T00:54:06.654Z,6.37
2017-10-18T00:56:32.971Z,6.13
2017-10-18T00:58:59.251Z,6.33
2017-10-18T01:01:25.559Z,5.70
2017-10-18T01:03:51.844Z,6.45
2017-10-18T01:06:19.583Z,6.50
2017-10-18T01:08:45.983Z,6.50
2017-10-18T01:11:13.299Z,6.70
2017-10-18T01:13:40.320Z,6.77
2017-10-18T01:16:06.608Z,6.77
2017-10-18T01:18:32.882Z,6.83
2017-10-18T01:20:59.174Z,6.83
2017-10-18T01:23:25.460Z,6.40
2017-10-18T01:25:52.506Z,5.57
2017-10-18T01:28:19.546Z,6.40
2017-10-18T01:30:46.627Z,5.40
2017-10-18T01:33:12.903Z,5.60
2017-10-18T01:35:39.790Z,4.93
2017-10-18T01:38:06.081Z,5.97
2017-10-18T01:40:32.366Z,6.07
2017-10-18T01:42:58.667Z,5.60
2017-10-18T01:45:24.942Z,5.73
2017-10-18T01:47:51.230Z,6.40
2017-10-18T01:50:17.506Z,6.30
2017-10-18T01:52:43.794Z,5.80
2017-10-18T01:55:10.063Z,5.65
2017-10-18T01:57:36.646Z,6.17
2017-10-18T02:00:03.695Z,5.60
2017-10-18T02:02:30.707Z,5.67
2017-10-18T02:04:57.018Z,6.30
2017-10-18T02:07:23.310Z,7.05
2017-10-18T02:09:49.591Z,6.70
2017-10-18T02:12:15.951Z,6.83
2017-10-18T02:14:42.975Z,6.80
2017-10-18T02:17:09.246Z,6.27
2017-10-18T02:19:35.567Z,6.72
2017-10-18T02:22:02.683Z,6.97
2017-10-18T02:24:29.007Z,6.87
2017-10-18T02:26:56.262Z,7.32
2017-10-18T02:29:22.549Z,7.50
2017-10-18T02:31:48.827Z,6.62
2017-10-18T02:34:15.915Z,7.62
2017-10-18T02:36:42.230Z,6.60
2017-10-18T02:39:08.535Z,6.78
2017-10-18T02:41:35.651Z,7.20
2017-10-18T02:44:01.929Z,7.53
2017-10-18T02:46:28.963Z,6.70
2017-10-18T02:48:56.275Z,7.17
2017-10-18T02:51:23.599Z,7.55
2017-10-18T02:53:49.883Z,8.40
2017-10-18T02:56:16.186Z,7.12
2017-10-18T02:58:42.450Z,7.30
2017-10-18T03:01:08.733Z,6.80
2017-10-18T03:03:36.075Z,6.78
2017-10-18T03:06:03.387Z,6.55
2017-10-18T03:08:29.707Z,6.28
2017-10-18T03:10:56.007Z,7.20
2017-10-18T03:13:22.301Z,5.87
2017-10-18T03:15:48.590Z,6.35
2017-10-18T03:18:14.906Z,7.35
2017-10-18T03:20:41.187Z,7.28
2017-10-18T03:23:08.234Z,6.97
2017-10-18T03:25:35.598Z,6.25
2017-10-18T03:28:01.906Z,6.95
2017-10-18T03:30:28.986Z,5.82
2017-10-18T03:32:55.310Z,6.40
2017-10-18T03:35:21.610Z,7.07
2017-10-18T03:37:48.626Z,7.12
2017-10-18T03:40:14.986Z,6.60
2017-10-18T03:42:42.031Z,7.15
2017-10-18T03:45:09.079Z,6.57
2017-10-18T03:47:35.406Z,6.87
2017-10-18T03:50:01.688Z,8.18
2017-10-18T03:52:27.981Z,7.12
2017-10-18T03:54:55.016Z,6.12
2017-10-18T03:57:22.070Z,6.03
2017-10-18T03:59:49.098Z,6.82
2017-10-18T04:02:15.395Z,6.62
2017-10-18T04:04:41.671Z,6.75
2017-10-18T04:07:08.743Z,5.60
2017-10-18T04:09:35.059Z,5.20
2017-10-18T04:12:02.129Z,5.25
2017-10-18T04:14:28.422Z,4.78
2017-10-18T04:16:55.466Z,5.35
2017-10-18T04:19:22.494Z,5.55
2017-10-18T04:21:48.790Z,5.50
2017-10-18T04:24:15.072Z,4.93
2017-10-18T04:26:42.115Z,4.85
2017-10-18T04:29:09.258Z,5.30
2017-10-18T04:31:35.567Z,4.95
2017-10-18T04:34:01.864Z,5.87
2017-10-18T04:36:28.204Z,4.50
2017-10-18T04:38:54.483Z,5.32
2017-10-18T04:41:21.502Z,4.40
2017-10-18T04:43:47.825Z,4.65
2017-10-18T04:46:14.139Z,5.60
2017-10-18T04:48:40.435Z,4.78
2017-10-18T04:51:07.498Z,5.18
2017-10-18T04:53:34.671Z,5.53
2017-10-18T04:56:00.973Z,5.20
2017-10-18T04:58:27.278Z,4.95
2017-10-18T05:00:55.352Z,5.72
2017-10-18T05:03:22.393Z,4.43
2017-10-18T05:05:49.459Z,4.60
2017-10-18T05:08:16.490Z,4.43
2017-10-18T05:10:43.527Z,5.00
2017-10-18T05:13:09.851Z,5.45
2017-10-18T05:15:36.147Z,4.57
2017-10-18T05:18:02.431Z,4.40
2017-10-18T05:20:29.507Z,4.75
2017-10-18T05:22:55.799Z,4.40
2017-10-18T05:25:22.814Z,4.00
2017-10-18T05:27:49.133Z,4.55
2017-10-18T05:30:15.410Z,4.32
2017-10-18T05:32:42.426Z,3.90
2017-10-18T05:35:08.731Z,4.72
2017-10-18T05:37:35.018Z,4.15
2017-10-18T05:40:02.037Z,4.03
2017-10-18T05:42:28.354Z,3.70
2017-10-18T05:44:54.624Z,4.25
2017-10-18T05:47:20.911Z,3.97
2017-10-18T05:49:47.220Z,4.30
2017-10-18T05:52:13.500Z,3.87
2017-10-18T05:54:40.513Z,3.62
2017-10-18T05:57:06.834Z,3.47
2017-10-18T05:59:33.158Z,3.72
2017-10-18T06:01:59.437Z,3.53
2017-10-18T06:04:26.493Z,3.25
2017-10-18T06:06:53.524Z,3.15
2017-10-18T06:09:19.810Z,2.65
2017-10-18T06:11:46.115Z,3.00
2017-10-18T06:14:12.383Z,3.42
2017-10-18T06:16:38.691Z,3.67
2017-10-18T06:19:06.055Z,2.75
2017-10-18T06:21:32.365Z,3.20
2017-10-18T06:23:58.698Z,3.25
2017-10-18T06:26:25.061Z,3.40
2017-10-18T06:28:51.338Z,2.80
2017-10-18T06:31:17.640Z,2.80
2017-10-18T06:33:43.934Z,2.67
2017-10-18T06:36:10.243Z,3.08
2017-10-18T06:38:36.535Z,2.57
2017-10-18T06:41:03.595Z,3.72
2017-10-18T06:43:30.626Z,3.13
2017-10-18T06:45:56.919Z,3.10
2017-10-18T06:48:23.207Z,2.80
2017-10-18T06:50:49.503Z,2.70
2017-10-18T06:53:15.798Z,2.53
2017-10-18T06:55:42.086Z,2.57
2017-10-18T06:58:09.176Z,2.97
2017-10-18T07:00:35.497Z,3.07
2017-10-18T07:03:01.802Z,2.80
2017-10-18T07:05:28.075Z,2.40
2017-10-18T07:07:54.382Z,2.65
2017-10-18T07:10:20.691Z,2.35
2017-10-18T07:12:47.731Z,2.87
2017-10-18T07:15:14.765Z,2.70
2017-10-18T07:17:41.069Z,2.80
2017-10-18T07:20:07.348Z,3.13
2017-10-18T07:22:33.650Z,2.70
2017-10-18T07:25:00.683Z,2.60
2017-10-18T07:27:26.990Z,2.70
2017-10-18T07:29:53.271Z,2.40
2017-10-18T07:32:20.275Z,3.00
2017-10-18T07:34:46.585Z,2.67
2017-10-18T07:37:12.852Z,2.30
2017-10-18T07:39:39.129Z,2.33
2017-10-18T07:42:06.174Z,2.47
2017-10-18T07:44:32.467Z,2.20
2017-10-18T07:46:58.731Z,2.50
2017-10-18T07:49:25.034Z,2.90
2017-10-18T07:51:52.042Z,2.50
2017-10-18T07:54:18.361Z,2.47
2017-10-18T07:56:44.680Z,2.67
2017-10-18T07:59:10.974Z,2.50
2017-10-18T08:01:38.008Z,2.30
2017-10-18T08:04:04.310Z,3.00
2017-10-18T08:06:30.624Z,2.50
2017-10-18T08:08:56.922Z,2.60
2017-10-18T08:11:23.255Z,3.20
2017-10-18T08:13:49.547Z,3.07
2017-10-18T08:16:15.811Z,2.80
2017-10-18T08:18:42.127Z,2.57
2017-10-18T08:21:09.153Z,2.90
2017-10-18T08:23:35.443Z,2.80
2017-10-18T08:26:01.766Z,3.00
2017-10-18T08:28:28.071Z,2.73
2017-10-18T08:30:54.362Z,3.43
2017-10-18T08:33:20.696Z,2.60
2017-10-18T08:35:47.011Z,3.23
2017-10-18T08:38:13.298Z,3.50
2017-10-18T08:40:39.622Z,2.97
2017-10-18T08:43:05.922Z,2.70
2017-10-18T08:45:32.974Z,2.90
2017-10-18T08:48:00.079Z,2.60
2017-10-18T08:50:27.386Z,2.60
2017-10-18T08:52:54.426Z,2.70
2017-10-18T08:55:21.502Z,3.10
2017-10-18T08:57:47.810Z,2.70
2017-10-18T09:00:14.849Z,2.50
2017-10-18T09:02:41.958Z,3.03
2017-10-18T09:05:08.285Z,2.60
2017-10-18T09:07:34.574Z,2.60
2017-10-18T09:10:01.622Z,2.70
2017-10-18T09:12:27.910Z,2.63
2017-10-18T09:14:54.191Z,2.40
2017-10-18T09:17:20.503Z,2.57
2017-10-18T09:19:47.898Z,3.13
2017-10-18T09:22:14.170Z,2.70
2017-10-18T09:24:41.220Z,2.50
2017-10-18T09:27:09.242Z,2.20
2017-10-18T09:29:35.509Z,2.40
2017-10-18T09:32:01.812Z,2.33
2017-10-18T09:34:28.070Z,2.53
2017-10-18T09:36:54.337Z,2.57
2017-10-18T09:39:20.658Z,1.90
2017-10-18T09:41:46.997Z,2.37
2017-10-18T09:44:13.334Z,2.50
2017-10-18T09:46:39.622Z,2.33
2017-10-18T09:49:06.655Z,2.30
2017-10-18T09:51:32.922Z,2.33
2017-10-18T09:54:00.019Z,2.33
2017-10-18T09:56:26.290Z,2.93
2017-10-18T09:58:53.286Z,2.40
2017-10-18T10:01:19.579Z,2.70
2017-10-18T10:03:45.899Z,2.40
2017-10-18T10:06:12.924Z,2.30
2017-10-18T10:08:39.250Z,2.80
2017-10-18T10:11:06.306Z,2.90
2017-10-18T10:13:32.591Z,2.93
2017-10-18T10:15:58.922Z,3.00
2017-10-18T10:18:25.187Z,3.77
2017-10-18T10:20:51.458Z,3.00
2017-10-18T10:23:17.763Z,3.40
2017-10-18T10:25:44.771Z,3.93
2017-10-18T10:28:11.091Z,3.97
2017-10-18T10:30:37.390Z,3.20
2017-10-18T10:33:03.667Z,3.47
2017-10-18T10:35:30.994Z,3.53
2017-10-18T10:37:57.293Z,3.10
2017-10-18T10:40:23.587Z,3.13
2017-10-18T10:42:49.854Z,3.30
2017-10-18T10:45:16.162Z,3.40
2017-10-18T10:47:43.164Z,3.13
2017-10-18T10:50:09.434Z,2.90
2017-10-18T10:52:36.495Z,3.10
2017-10-18T10:55:03.516Z,3.40
2017-10-18T10:57:29.792Z,3.67
2017-10-18T10:59:56.078Z,3.73
2017-10-18T11:02:22.364Z,4.03
2017-10-18T11:04:48.639Z,3.50
2017-10-18T11:07:15.706Z,4.27
2017-10-18T11:09:42.718Z,3.70
2017-10-18T11:12:09.991Z,3.20
2017-10-18T11:14:37.031Z,3.67
2017-10-18T11:17:03.302Z,3.50
2017-10-18T11:19:29.574Z,3.17
2017-10-18T11:21:55.871Z,2.83
2017-10-18T11:24:22.138Z,3.80
2017-10-18T11:26:48.406Z,3.00
2017-10-18T11:29:14.702Z,3.93
2017-10-18T11:31:40.991Z,3.50
2017-10-18T11:34:07.251Z,3.33
2017-10-18T11:36:33.604Z,3.53
2017-10-18T11:39:00.649Z,3.10
2017-10-18T11:41:27.678Z,3.57
2017-10-18T11:43:54.005Z,3.23
2017-10-18T11:46:20.280Z,3.53
2017-10-18T11:48:46.546Z,2.80
2017-10-18T11:51:12.845Z,3.20
2017-10-18T11:53:39.122Z,2.90
2017-10-18T11:56:05.423Z,3.00
2017-10-18T11:58:32.742Z,3.20
2017-10-18T12:00:59.056Z,3.50
2017-10-18T12:03:26.079Z,2.93
2017-10-18T12:05:52.377Z,3.10
2017-10-18T12:08:18.647Z,3.10
2017-10-18T12:10:44.915Z,3.27
2017-10-18T12:13:11.237Z,3.47
2017-10-18T12:15:37.508Z,3.77
2017-10-18T12:18:03.783Z,2.87
2017-10-18T12:20:30.886Z,3.00
2017-10-18T12:22:57.167Z,3.20
2017-10-18T12:25:23.430Z,3.60
2017-10-18T12:27:49.759Z,2.87
2017-10-18T12:30:16.036Z,3.20
2017-10-18T12:32:43.046Z,3.37
2017-10-18T12:35:09.338Z,2.87
2017-10-18T12:37:35.619Z,3.10
2017-10-18T12:40:01.886Z,2.70
2017-10-18T12:42:28.190Z,2.90
2017-10-18T12:44:54.491Z,2.90
2017-10-18T12:47:20.779Z,3.50
2017-10-18T12:49:47.093Z,3.17
2017-10-18T12:52:14.112Z,3.67
2017-10-18T12:54:40.379Z,3.73
2017-10-18T12:57:06.670Z,3.50
2017-10-18T12:59:32.966Z,3.97
2017-10-18T13:01:59.239Z,3.57
2017-10-18T13:04:25.534Z,3.80
2017-10-18T13:06:51.815Z,3.63
2017-10-18T13:09:18.823Z,4.00
2017-10-18T13:11:45.124Z,4.00
2017-10-18T13:14:11.390Z,3.60
2017-10-18T13:16:37.666Z,3.83
2017-10-18T13:19:03.971Z,3.40
2017-10-18T13:21:30.986Z,3.43
2017-10-18T13:23:57.254Z,3.77
2017-10-18T13:26:24.298Z,3.80
2017-10-18T13:28:51.316Z,3.40
2017-10-18T13:31:17.584Z,4.50
2017-10-18T13:33:44.251Z,3.87
2017-10-18T13:36:10.510Z,4.13
2017-10-18T13:38:37.476Z,4.50
2017-10-18T13:41:04.511Z,3.97
2017-10-18T13:43:30.792Z,4.20
2017-10-18T13:45:57.086Z,3.80
2017-10-18T13:48:24.132Z,5.00
2017-10-18T13:50:51.142Z,3.70
2017-10-18T13:53:17.408Z,3.97
2017-10-18T13:55:44.449Z,4.30
2017-10-18T13:58:11.454Z,4.33
2017-10-18T14:00:37.725Z,3.93
2017-10-18T14:03:04.770Z,4.50
2017-10-18T14:05:31.807Z,4.97
2017-10-18T14:07:58.066Z,4.40
2017-10-18T14:10:24.366Z,3.80
2017-10-18T14:12:50.631Z,4.47
2017-10-18T14:15:16.892Z,4.00
2017-10-18T14:17:43.204Z,5.17
2017-10-18T14:20:09.462Z,3.73
2017-10-18T14:22:35.735Z,4.70
2017-10-18T14:25:02.796Z,4.50
2017-10-18T14:27:29.072Z,4.23
2017-10-18T14:29:55.339Z,4.30
2017-10-18T14:32:21.644Z,4.23
2017-10-18T14:34:47.946Z,4.77
2017-10-18T14:37:14.219Z,5.23
2017-10-18T14:39:41.246Z,4.40
2017-10-18T14:42:07.517Z,4.40
2017-10-18T14:44:33.783Z,4.17
2017-10-18T14:47:00.102Z,4.20
2017-10-18T14:49:26.378Z,4.13
2017-10-18T14:51:53.408Z,4.03
2017-10-18T14:54:19.718Z,3.90
2017-10-18T14:56:46.824Z,3.80
2017-10-18T14:59:13.175Z,4.10
2017-10-18T15:01:39.487Z,4.60
2017-10-18T15:04:05.770Z,3.97
2017-10-18T15:06:32.046Z,4.23
2017-10-18T15:08:58.358Z,4.27
2017-10-18T15:11:25.367Z,4.10
2017-10-18T15:13:51.626Z,4.77
2017-10-18T15:16:18.695Z,4.50
2017-10-18T15:18:44.966Z,4.27
2017-10-18T15:21:11.242Z,4.33
2017-10-18T15:23:38.286Z,4.77
2017-10-18T15:26:06.317Z,3.83
2017-10-18T15:28:32.635Z,4.40
2017-10-18T15:30:58.927Z,4.20
2017-10-18T15:33:25.194Z,5.00
2017-10-18T15:35:51.500Z,4.23
2017-10-18T15:38:17.810Z,4.57
2017-10-18T15:40:44.074Z,4.50
2017-10-18T15:43:10.331Z,4.37
2017-10-18T15:45:37.660Z,4.60
2017-10-18T15:48:03.939Z,5.43
2017-10-18T15:50:30.991Z,4.63
2017-10-18T15:52:59.033Z,4.50
2017-10-18T15:55:25.303Z,4.43
2017-10-18T15:57:51.574Z,5.10
2017-10-18T16:00:17.862Z,4.20
2017-10-18T16:02:44.126Z,4.83
2017-10-18T16:05:10.398Z,4.73
2017-10-18T16:07:37.482Z,4.40
2017-10-18T16:10:03.756Z,4.60
2017-10-18T16:12:30.042Z,4.57
2017-10-18T16:14:56.370Z,4.47
2017-10-18T16:17:22.657Z,4.27
2017-10-18T16:19:49.682Z,4.10
2017-10-18T16:22:15.997Z,4.90
2017-10-18T16:24:42.301Z,4.33
2017-10-18T16:27:08.598Z,4.90
2017-10-18T16:29:35.652Z,4.37
2017-10-18T16:32:02.673Z,5.40
2017-10-18T16:34:28.934Z,4.67
2017-10-18T16:36:55.234Z,4.70
2017-10-18T16:39:21.515Z,4.03
2017-10-18T16:41:47.806Z,4.20
2017-10-18T16:44:14.865Z,3.60
2017-10-18T16:46:41.151Z,4.70
2017-10-18T16:49:08.472Z,4.63
2017-10-18T16:51:34.803Z,5.53
2017-10-18T16:54:02.127Z,5.23
2017-10-18T16:56:28.398Z,5.37
2017-10-18T16:58:54.690Z,5.63
2017-10-18T17:01:20.976Z,4.70
2017-10-18T17:03:47.251Z,5.20
2017-10-18T17:06:13.574Z,6.20
2017-10-18T17:08:39.854Z,5.47
2017-10-18T17:11:06.122Z,5.80
2017-10-18T17:13:33.154Z,6.13
2017-10-18T17:15:59.438Z,5.60
2017-10-18T17:18:26.454Z,6.00
2017-10-18T17:20:52.771Z,6.00
2017-10-18T17:23:20.865Z,5.00
2017-10-18T17:25:47.146Z,4.80
2017-10-18T17:28:13.454Z,5.70
2017-10-18T17:30:39.722Z,5.20
2017-10-18T17:33:06.730Z,4.80
2017-10-18T17:35:33.031Z,4.97
2017-10-18T17:37:59.306Z,5.20
2017-10-18T17:40:25.587Z,5.00
2017-10-18T17:42:51.891Z,5.83
2017-10-18T17:45:18.917Z,6.60
2017-10-18T17:47:45.214Z,5.30
2017-10-18T17:50:11.510Z,6.10
2017-10-18T17:52:37.798Z,5.30
2017-10-18T17:55:04.106Z,6.20
2017-10-18T17:57:31.430Z,6.53
2017-10-18T17:59:57.706Z,6.10
2017-10-18T18:02:24.010Z,6.20
2017-10-18T18:04:50.306Z,6.40
2017-10-18T18:07:16.603Z,6.43
2017-10-18T18:09:42.874Z,6.20
2017-10-18T18:12:09.208Z,5.63
2017-10-18T18:14:35.621Z,5.67
2017-10-18T18:17:02.634Z,6.13
2017-10-18T18:19:28.990Z,6.63
2017-10-18T18:21:57.027Z,6.30
2017-10-18T18:24:23.303Z,7.90
2017-10-18T18:26:49.618Z,7.40
2017-10-18T18:29:16.619Z,7.30
2017-10-18T18:31:42.948Z,7.57
2017-10-18T18:34:09.233Z,6.40
2017-10-18T18:36:35.586Z,7.47
2017-10-18T18:39:02.650Z,7.10
2017-10-18T18:41:28.998Z,7.50
2017-10-18T18:43:55.290Z,6.83
2017-10-18T18:46:21.572Z,8.00
2017-10-18T18:48:47.914Z,8.10
2017-10-18T18:51:15.794Z,7.37
2017-10-18T18:53:42.810Z,7.77
2017-10-18T18:56:09.114Z,7.77
2017-10-18T18:58:35.414Z,7.90
2017-10-18T19:01:01.715Z,6.97
2017-10-18T19:03:28.786Z,7.47
2017-10-18T19:05:55.081Z,7.03
2017-10-18T19:08:21.364Z,7.40
2017-10-18T19:10:47.679Z,7.50
2017-10-18T19:13:13.956Z,8.03
2017-10-18T19:15:40.260Z,8.83
2017-10-18T19:18:06.626Z,7.50
2017-10-18T19:20:32.965Z,7.87
2017-10-18T19:22:59.258Z,7.43
2017-10-18T19:25:25.554Z,7.60
2017-10-18T19:27:51.828Z,7.40
2017-10-18T19:30:18.106Z,8.27
2017-10-18T19:32:45.170Z,7.63
2017-10-18T19:35:11.494Z,8.57
2017-10-18T19:37:37.779Z,7.87
2017-10-18T19:40:04.108Z,8.40
2017-10-18T19:42:30.394Z,8.63
2017-10-18T19:44:56.666Z,8.80
2017-10-18T19:47:22.967Z,8.60
2017-10-18T19:49:49.253Z,8.30
2017-10-18T19:52:16.410Z,8.07
2017-10-18T19:54:42.706Z,8.80
2017-10-18T19:57:09.143Z,10.43
2017-10-18T19:59:35.455Z,9.80
2017-10-18T20:02:01.757Z,10.70
2017-10-18T20:04:28.034Z,10.87
2017-10-18T20:06:54.334Z,9.80
2017-10-18T20:09:21.655Z,8.00
2017-10-18T20:11:47.932Z,8.57
2017-10-18T20:14:14.586Z,8.33
2017-10-18T20:16:41.030Z,10.10
2017-10-18T20:19:08.062Z,10.03
2017-10-18T20:21:34.388Z,12.20
2017-10-18T20:24:00.694Z,10.67
2017-10-18T20:26:26.973Z,10.10
2017-10-18T20:28:53.994Z,9.70
2017-10-18T20:31:20.294Z,11.07
2017-10-18T20:33:46.626Z,12.70
2017-10-18T20:36:12.907Z,11.23
2017-10-18T20:38:39.968Z,11.50
2017-10-18T20:41:07.208Z,11.13
2017-10-18T20:43:33.543Z,13.07
2017-10-18T20:45:59.901Z,10.40
2017-10-18T20:48:26.332Z,11.43
2017-10-18T20:50:52.644Z,11.70
2017-10-18T20:53:18.967Z,12.80
2017-10-18T20:55:45.316Z,12.03
2017-10-18T20:58:11.586Z,12.30
2017-10-18T21:00:38.770Z,12.50
2017-10-18T21:03:05.059Z,12.10
2017-10-18T21:05:31.343Z,13.80
2017-10-18T21:07:57.670Z,12.73
2017-10-18T21:10:23.933Z,15.87
2017-10-18T21:12:50.219Z,12.43
2017-10-18T21:15:16.518Z,12.80
2017-10-18T21:17:42.802Z,13.40
2017-10-18T21:20:09.144Z,14.43
2017-10-18T21:22:36.242Z,13.70
2017-10-18T21:25:04.277Z,14.60
2017-10-18T21:27:30.567Z,14.37
2017-10-18T21:29:56.883Z,13.60
2017-10-18T21:32:23.900Z,14.50
2017-10-18T21:34:50.194Z,14.87
2017-10-18T21:37:16.531Z,13.87
2017-10-18T21:39:42.822Z,13.93
2017-10-18T21:42:09.172Z,13.57
2017-10-18T21:44:35.507Z,14.40
2017-10-18T21:47:01.821Z,14.77
2017-10-18T21:49:28.153Z,15.53
2017-10-18T21:51:54.450Z,15.70
2017-10-18T21:54:20.756Z,14.57
2017-10-18T21:56:47.042Z,14.07
2017-10-18T21:59:13.593Z,14.90
2017-10-18T22:01:39.951Z,15.10
2017-10-18T22:04:06.335Z,13.47
2017-10-18T22:06:32.740Z,14.30
2017-10-18T22:08:59.839Z,14.93
2017-10-18T22:11:26.211Z,13.43
2017-10-18T22:13:53.368Z,13.20
2017-10-18T22:16:20.479Z,13.80
2017-10-18T22:18:46.838Z,14.07
2017-10-18T22:21:13.979Z,13.13
2017-10-18T22:23:40.435Z,13.80
2017-10-18T22:26:06.831Z,13.50
2017-10-18T22:28:33.243Z,13.20
2017-10-18T22:30:59.639Z,11.67
2017-10-18T22:33:26.016Z,11.27
2017-10-18T22:35:53.457Z,10.80
2017-10-18T22:38:19.853Z,11.17
2017-10-18T22:40:46.220Z,10.20
2017-10-18T22:43:13.635Z,9.53
2017-10-18T22:45:40.735Z,8.97
2017-10-18T22:48:07.104Z,9.30
2017-10-18T22:50:33.552Z,8.60
2017-10-18T22:53:00.672Z,7.87
2017-10-18T22:55:27.807Z,7.30
2017-10-18T22:57:54.413Z,6.03
2017-10-18T23:00:20.783Z,5.83
2017-10-18T23:02:47.171Z,5.40
2017-10-18T23:05:13.567Z,5.93
2017-10-18T23:07:40.682Z,5.80
2017-10-18T23:10:07.062Z,7.10
2017-10-18T23:12:33.471Z,5.47
2017-10-18T23:14:59.839Z,5.37
2017-10-18T23:17:26.255Z,4.97
2017-10-18T23:19:53.399Z,4.90
2017-10-18T23:22:20.514Z,5.17
2017-10-18T23:24:46.899Z,4.97
2017-10-18T23:27:13.308Z,5.33
2017-10-18T23:29:40.436Z,4.40
2017-10-18T23:32:06.786Z,4.80
2017-10-18T23:34:34.088Z,4.93
2017-10-18T23:37:00.447Z,3.80
2017-10-18T23:39:26.817Z,4.30
2017-10-18T23:41:54.215Z,5.10
2017-10-18T23:44:20.590Z,4.33
2017-10-18T23:46:47.716Z,4.53
2017-10-18T23:49:14.130Z,3.90
2017-10-18T23:51:40.499Z,4.60
2017-10-18T23:54:07.603Z,4.43
2017-10-18T23:56:34.003Z,4.27
2017-10-18T23:59:00.393Z,4.17
